createdAt,value
2018-09-13T00:01:21.757Z,9.48
2018-09-13T00:03:48.662Z,9.45
2018-09-13T00:06:15.637Z,9.42
2018-09-13T00:08:42.578Z,9.41
2018-09-13T00:11:09.506Z,9.39
2018-09-13T00:13:36.497Z,9.38
2018-09-13T00:16:03.475Z,9.37
2018-09-13T00:18:30.442Z,9.34
2018-09-13T00:20:57.377Z,9.34
2018-09-13T00:23:24.260Z,9.33
2018-09-13T00:25:51.242Z,9.29
2018-09-13T00:28:18.153Z,9.27
2018-09-13T00:30:45.152Z,9.19
2018-09-13T00:33:12.177Z,9.13
2018-09-13T00:35:39.093Z,9.13
2018-09-13T00:38:06.018Z,9.10
2018-09-13T00:40:32.924Z,9.05
2018-09-13T00:42:59.832Z,8.99
2018-09-13T00:45:26.734Z,8.97
2018-09-13T00:47:53.677Z,8.98
2018-09-13T00:50:20.568Z,9.03
2018-09-13T00:52:47.483Z,9.00
2018-09-13T00:55:14.393Z,8.98
2018-09-13T00:57:41.321Z,8.97
2018-09-13T01:00:08.260Z,8.92
2018-09-13T01:02:35.591Z,8.89
2018-09-13T01:05:02.531Z,8.87
2018-09-13T01:07:29.880Z,8.84
2018-09-13T01:09:56.802Z,8.82
2018-09-13T01:12:24.356Z,8.82
2018-09-13T01:14:51.273Z,8.79
2018-09-13T01:17:18.181Z,8.80
2018-09-13T01:19:45.439Z,8.75
2018-09-13T01:22:12.357Z,8.77
2018-09-13T01:24:39.266Z,8.81
2018-09-13T01:27:06.190Z,8.86
2018-09-13T01:29:33.181Z,8.91
2018-09-13T01:32:00.108Z,8.94
2018-09-13T01:34:27.000Z,8.97
2018-09-13T01:36:53.951Z,8.99
2018-09-13T01:39:20.864Z,9.03
2018-09-13T01:41:47.793Z,9.02
2018-09-13T01:44:14.689Z,9.04
2018-09-13T01:46:41.617Z,9.03
2018-09-13T01:49:08.524Z,9.04
2018-09-13T01:51:35.423Z,9.01
2018-09-13T01:54:02.337Z,8.93
2018-09-13T01:56:29.425Z,8.89
2018-09-13T01:58:56.337Z,8.79
2018-09-13T02:01:23.256Z,8.82
2018-09-13T02:03:50.170Z,8.83
2018-09-13T02:06:17.097Z,8.86
2018-09-13T02:08:44.029Z,8.88
2018-09-13T02:11:10.939Z,8.86
2018-09-13T02:13:37.871Z,8.81
2018-09-13T02:16:05.060Z,8.70
2018-09-13T02:18:31.970Z,8.60
2018-09-13T02:20:59.041Z,8.53
2018-09-13T02:23:25.945Z,8.48
2018-09-13T02:25:52.880Z,8.42
2018-09-13T02:28:19.830Z,8.40
2018-09-13T02:30:46.736Z,8.37
2018-09-13T02:33:13.645Z,8.45
2018-09-13T02:35:40.540Z,8.42
2018-09-13T02:38:07.436Z,8.31
2018-09-13T02:40:34.337Z,8.21
2018-09-13T02:43:01.242Z,8.18
2018-09-13T02:45:28.128Z,8.23
2018-09-13T02:47:55.056Z,8.33
2018-09-13T02:50:21.948Z,8.37
2018-09-13T02:52:48.850Z,8.36
2018-09-13T02:55:15.732Z,8.28
2018-09-13T02:57:42.634Z,8.19
2018-09-13T03:00:09.646Z,8.16
2018-09-13T03:02:36.757Z,8.13
2018-09-13T03:05:03.656Z,8.25
2018-09-13T03:07:30.581Z,8.36
2018-09-13T03:09:57.485Z,8.50
2018-09-13T03:12:24.410Z,8.55
2018-09-13T03:14:51.328Z,8.51
2018-09-13T03:17:18.253Z,8.39
2018-09-13T03:19:45.189Z,8.31
2018-09-13T03:22:12.094Z,8.33
2018-09-13T03:24:39.821Z,8.33
2018-09-13T03:27:06.742Z,8.29
2018-09-13T03:29:33.733Z,8.28
2018-09-13T03:32:00.652Z,8.27
2018-09-13T03:34:27.590Z,8.20
2018-09-13T03:36:54.502Z,8.12
2018-09-13T03:39:21.457Z,8.03
2018-09-13T03:41:48.374Z,7.93
2018-09-13T03:44:15.321Z,7.84
2018-09-13T03:46:42.242Z,7.85
2018-09-13T03:49:09.153Z,7.81
2018-09-13T03:51:36.056Z,7.74
2018-09-13T03:54:02.989Z,7.73
2018-09-13T03:56:29.927Z,7.68
2018-09-13T03:58:56.888Z,7.63
2018-09-13T04:01:23.840Z,7.64
2018-09-13T04:03:50.799Z,7.59
2018-09-13T04:06:17.966Z,7.57
2018-09-13T04:08:44.930Z,7.48
2018-09-13T04:11:11.870Z,7.62
2018-09-13T04:13:38.914Z,7.75
2018-09-13T04:16:05.824Z,7.81
2018-09-13T04:18:32.786Z,7.83
2018-09-13T04:20:59.704Z,7.75
2018-09-13T04:23:26.605Z,7.72
2018-09-13T04:25:53.500Z,7.74
2018-09-13T04:28:20.422Z,7.76
2018-09-13T04:30:47.349Z,7.77
2018-09-13T04:33:14.277Z,7.75
2018-09-13T04:35:41.321Z,7.72
2018-09-13T04:38:08.125Z,7.67
2018-09-13T04:40:35.045Z,7.69
2018-09-13T04:43:01.975Z,7.73
2018-09-13T04:45:28.915Z,7.76
2018-09-13T04:47:55.885Z,7.81
2018-09-13T04:50:22.805Z,7.86
2018-09-13T04:52:49.706Z,7.88
2018-09-13T04:55:16.628Z,7.88
2018-09-13T04:57:43.513Z,7.88
2018-09-13T05:00:10.553Z,7.93
2018-09-13T05:02:37.706Z,7.98
2018-09-13T05:05:04.711Z,8.03
2018-09-13T05:07:31.601Z,8.04
2018-09-13T05:09:58.508Z,7.94
2018-09-13T05:12:25.401Z,8.02
2018-09-13T05:14:52.301Z,8.14
2018-09-13T05:17:19.204Z,8.22
2018-09-13T05:19:46.116Z,8.29
2018-09-13T05:22:13.005Z,8.31
2018-09-13T05:24:39.917Z,8.39
2018-09-13T05:27:06.807Z,8.45
2018-09-13T05:29:33.748Z,8.47
2018-09-13T05:32:00.649Z,8.57
2018-09-13T05:34:34.459Z,8.70
2018-09-13T05:37:01.364Z,8.78
2018-09-13T05:39:28.282Z,8.86
2018-09-13T05:41:55.185Z,8.90
2018-09-13T05:44:22.097Z,8.97
2018-09-13T05:46:48.980Z,9.06
2018-09-13T05:49:15.873Z,9.12
2018-09-13T05:51:42.785Z,9.20
2018-09-13T05:54:09.661Z,9.27
2018-09-13T05:56:36.588Z,9.40
2018-09-13T05:59:03.493Z,9.52
2018-09-13T06:01:30.483Z,9.59
2018-09-13T06:03:57.517Z,9.67
2018-09-13T06:06:24.530Z,9.77
2018-09-13T06:08:51.513Z,9.90
2018-09-13T06:11:18.528Z,10.03
2018-09-13T06:13:45.445Z,10.05
2018-09-13T06:16:12.353Z,10.11
2018-09-13T06:18:39.249Z,10.15
2018-09-13T06:21:06.153Z,10.32
2018-09-13T06:23:33.066Z,10.52
2018-09-13T06:25:59.957Z,10.65
2018-09-13T06:28:26.873Z,10.81
2018-09-13T06:30:53.780Z,10.97
2018-09-13T06:33:20.777Z,11.02
2018-09-13T06:35:47.689Z,11.11
2018-09-13T06:38:14.614Z,11.18
2018-09-13T06:40:41.516Z,11.32
2018-09-13T06:43:08.416Z,11.34
2018-09-13T06:45:35.330Z,11.36
2018-09-13T06:48:02.245Z,11.43
2018-09-13T06:50:29.137Z,11.55
2018-09-13T06:52:56.028Z,11.66
2018-09-13T06:55:22.934Z,11.88
2018-09-13T06:57:49.820Z,12.04
2018-09-13T07:00:16.725Z,12.10
2018-09-13T07:02:43.617Z,12.26
2018-09-13T07:05:10.561Z,12.30
2018-09-13T07:07:37.487Z,12.31
2018-09-13T07:10:04.401Z,12.37
2018-09-13T07:12:31.297Z,12.48
2018-09-13T07:14:58.186Z,12.56
2018-09-13T07:17:25.089Z,12.62
2018-09-13T07:19:52.045Z,12.79
2018-09-13T07:22:18.938Z,12.86
2018-09-13T07:24:45.829Z,12.96
2018-09-13T07:27:12.726Z,12.90
2018-09-13T07:29:39.629Z,12.89
2018-09-13T07:32:06.520Z,12.94
2018-09-13T07:34:33.408Z,12.97
2018-09-13T07:37:00.302Z,12.96
2018-09-13T07:39:27.214Z,12.89
2018-09-13T07:41:54.130Z,12.94
2018-09-13T07:44:21.088Z,13.10
2018-09-13T07:46:47.985Z,13.25
2018-09-13T07:49:14.935Z,13.17
2018-09-13T07:51:41.803Z,13.17
2018-09-13T07:54:08.693Z,13.54
2018-09-13T07:56:35.605Z,14.14
2018-09-13T07:59:02.500Z,14.55
2018-09-13T08:01:29.400Z,14.54
2018-09-13T08:03:56.372Z,14.73
2018-09-13T08:06:23.277Z,14.92
2018-09-13T08:08:50.168Z,15.34
2018-09-13T08:11:17.077Z,15.64
2018-09-13T08:13:43.968Z,15.59
2018-09-13T08:16:10.863Z,15.43
2018-09-13T08:18:37.766Z,15.40
2018-09-13T08:21:05.133Z,15.39
2018-09-13T08:23:32.061Z,15.45
2018-09-13T08:25:58.952Z,15.55
2018-09-13T08:28:25.858Z,15.70
2018-09-13T08:30:52.740Z,15.91
2018-09-13T08:33:19.700Z,16.10
2018-09-13T08:35:46.545Z,16.35
2018-09-13T08:38:13.521Z,16.45
2018-09-13T08:40:40.469Z,16.49
2018-09-13T08:43:07.412Z,16.72
2018-09-13T08:45:34.325Z,16.85
2018-09-13T08:48:01.224Z,16.72
2018-09-13T08:50:28.173Z,16.82
2018-09-13T08:52:55.206Z,16.89
2018-09-13T08:55:22.109Z,16.96
2018-09-13T08:57:49.045Z,16.84
2018-09-13T09:00:15.960Z,16.83
2018-09-13T09:02:42.865Z,17.04
2018-09-13T09:05:09.832Z,17.14
2018-09-13T09:07:37.433Z,17.12
2018-09-13T09:10:04.382Z,17.17
2018-09-13T09:12:31.309Z,17.46
2018-09-13T09:14:58.321Z,17.49
2018-09-13T09:17:25.261Z,17.58
2018-09-13T09:19:52.262Z,17.27
2018-09-13T09:22:19.197Z,17.28
2018-09-13T09:24:46.089Z,16.85
2018-09-13T09:27:13.031Z,17.10
2018-09-13T09:29:39.972Z,17.56
2018-09-13T09:32:07.193Z,17.77
2018-09-13T09:34:34.174Z,18.21
2018-09-13T09:37:01.107Z,18.31
2018-09-13T09:39:28.035Z,18.27
2018-09-13T09:41:55.029Z,18.45
2018-09-13T09:44:22.010Z,18.50
2018-09-13T09:46:48.893Z,18.97
2018-09-13T09:49:15.801Z,19.34
2018-09-13T09:51:42.734Z,19.45
2018-09-13T09:54:09.687Z,18.30
2018-09-13T09:56:36.773Z,18.27
2018-09-13T09:59:03.714Z,18.17
2018-09-13T10:01:33.053Z,18.13
2018-09-13T10:04:00.045Z,17.42
2018-09-13T10:06:26.953Z,17.01
2018-09-13T10:08:53.922Z,17.07
2018-09-13T10:11:20.829Z,17.15
2018-09-13T10:13:47.780Z,17.86
2018-09-13T10:16:20.561Z,18.73
2018-09-13T10:18:51.997Z,19.26
2018-09-13T10:21:24.685Z,19.05
2018-09-13T10:23:57.521Z,17.84
2018-09-13T10:26:30.153Z,17.17
2018-09-13T10:29:02.898Z,17.06
2018-09-13T10:31:35.541Z,16.76
2018-09-13T10:34:08.240Z,16.83
2018-09-13T10:36:41.002Z,17.79
2018-09-13T10:39:13.951Z,18.16
2018-09-13T10:41:47.085Z,18.89
2018-09-13T10:44:19.794Z,19.66
2018-09-13T10:46:51.958Z,19.79
2018-09-13T10:49:24.548Z,19.63
2018-09-13T10:51:57.204Z,19.24
2018-09-13T10:54:29.678Z,18.35
2018-09-13T10:57:01.177Z,18.16
2018-09-13T10:59:28.104Z,18.67
2018-09-13T11:01:55.024Z,18.98
2018-09-13T11:04:21.953Z,19.25
2018-09-13T11:06:48.841Z,19.24
2018-09-13T11:09:15.785Z,19.02
2018-09-13T11:11:43.260Z,18.91
2018-09-13T11:14:15.573Z,18.85
2018-09-13T11:16:42.552Z,19.27
2018-09-13T11:19:09.482Z,19.59
2018-09-13T11:21:36.388Z,19.74
2018-09-13T11:24:03.309Z,20.07
2018-09-13T11:26:30.225Z,20.04
2018-09-13T11:28:57.200Z,19.96
2018-09-13T11:31:24.113Z,20.20
2018-09-13T11:33:51.065Z,20.11
2018-09-13T11:36:17.997Z,20.51
2018-09-13T11:38:44.930Z,20.28
2018-09-13T11:41:11.840Z,19.98
2018-09-13T11:43:38.737Z,19.52
2018-09-13T11:46:05.710Z,19.73
2018-09-13T11:48:32.608Z,20.14
2018-09-13T11:50:59.521Z,20.15
2018-09-13T11:53:26.432Z,20.37
2018-09-13T11:55:53.345Z,20.76
2018-09-13T11:58:20.256Z,20.74
2018-09-13T12:00:47.184Z,20.56
2018-09-13T12:03:14.259Z,20.61
2018-09-13T12:05:41.209Z,20.74
2018-09-13T12:08:08.101Z,20.28
2018-09-13T12:10:35.008Z,20.36
2018-09-13T12:13:01.910Z,20.33
2018-09-13T12:15:29.523Z,20.31
2018-09-13T12:17:56.529Z,20.54
2018-09-13T12:20:23.389Z,20.64
2018-09-13T12:22:50.318Z,20.78
2018-09-13T12:25:17.249Z,20.90
2018-09-13T12:27:44.151Z,20.80
2018-09-13T12:30:11.059Z,20.76
2018-09-13T12:32:38.024Z,20.92
2018-09-13T12:35:05.192Z,20.95
2018-09-13T12:37:32.119Z,20.95
2018-09-13T12:39:59.053Z,21.14
2018-09-13T12:42:25.950Z,20.96
2018-09-13T12:44:52.865Z,20.46
2018-09-13T12:47:19.753Z,19.46
2018-09-13T12:49:46.691Z,19.46
2018-09-13T12:52:13.848Z,19.99
2018-09-13T12:54:40.673Z,19.82
2018-09-13T12:57:07.628Z,19.14
2018-09-13T12:59:34.529Z,19.23
2018-09-13T13:02:01.450Z,19.10
2018-09-13T13:04:28.366Z,19.06
2018-09-13T13:06:55.333Z,18.50
2018-09-13T13:09:22.221Z,18.45
2018-09-13T13:11:49.109Z,18.42
2018-09-13T13:14:16.009Z,18.33
2018-09-13T13:16:42.998Z,18.23
2018-09-13T13:19:09.812Z,17.77
2018-09-13T13:21:36.761Z,17.73
2018-09-13T13:24:03.711Z,17.51
2018-09-13T13:26:30.619Z,17.37
2018-09-13T13:28:57.518Z,17.33
2018-09-13T13:31:24.423Z,17.27
2018-09-13T13:33:51.313Z,17.13
2018-09-13T13:36:18.281Z,17.00
2018-09-13T13:38:45.137Z,17.11
2018-09-13T13:41:12.050Z,17.42
2018-09-13T13:43:38.982Z,18.02
2018-09-13T13:46:05.907Z,18.34
2018-09-13T13:48:32.821Z,18.46
2018-09-13T13:50:59.737Z,18.85
2018-09-13T13:53:26.624Z,18.99
2018-09-13T13:55:53.575Z,18.88
2018-09-13T13:58:20.449Z,18.09
2018-09-13T14:00:47.350Z,17.75
2018-09-13T14:03:14.297Z,17.74
2018-09-13T14:05:41.184Z,17.73
2018-09-13T14:10:41.734Z,17.58
2018-09-13T14:13:08.675Z,17.44
2018-09-13T14:15:35.574Z,17.48
2018-09-13T14:18:02.479Z,17.42
2018-09-13T14:20:29.411Z,17.42
2018-09-13T14:22:56.321Z,17.49
2018-09-13T14:25:23.235Z,17.54
2018-09-13T14:27:50.181Z,17.59
2018-09-13T14:30:17.094Z,17.73
2018-09-13T14:32:44.001Z,17.83
2018-09-13T14:35:10.896Z,17.77
2018-09-13T14:37:37.796Z,17.64
2018-09-13T14:40:04.716Z,17.55
2018-09-13T14:42:31.654Z,17.59
2018-09-13T14:44:58.574Z,17.72
2018-09-13T14:47:25.542Z,17.70
2018-09-13T14:49:52.416Z,17.78
2018-09-13T14:52:19.330Z,18.09
2018-09-13T14:54:46.237Z,18.16
2018-09-13T14:57:13.184Z,17.82
2018-09-13T14:59:40.084Z,17.51
2018-09-13T15:02:06.980Z,17.37
2018-09-13T15:04:34.301Z,17.15
2018-09-13T15:07:01.394Z,17.14
2018-09-13T15:09:28.164Z,16.98
2018-09-13T15:11:55.141Z,16.98
2018-09-13T15:14:22.036Z,17.02
2018-09-13T15:16:48.948Z,17.01
2018-09-13T15:19:15.840Z,16.95
2018-09-13T15:21:42.745Z,17.01
2018-09-13T15:24:09.697Z,17.14
2018-09-13T15:26:36.579Z,17.30
2018-09-13T15:29:03.493Z,17.42
2018-09-13T15:31:30.384Z,17.51
2018-09-13T15:33:57.293Z,17.68
2018-09-13T15:36:24.196Z,17.70
2018-09-13T15:38:51.337Z,17.68
2018-09-13T15:41:18.254Z,17.59
2018-09-13T15:43:45.429Z,17.49
2018-09-13T15:46:12.329Z,17.41
2018-09-13T15:48:39.225Z,17.30
2018-09-13T15:51:06.254Z,17.16
2018-09-13T15:53:33.165Z,17.10
2018-09-13T15:56:00.041Z,17.06
2018-09-13T15:58:26.953Z,17.06
2018-09-13T16:00:53.857Z,17.04
2018-09-13T16:03:20.769Z,17.02
2018-09-13T16:05:47.664Z,17.07
2018-09-13T16:08:14.607Z,17.00
2018-09-13T16:10:41.520Z,16.88
2018-09-13T16:13:08.506Z,16.90
2018-09-13T16:15:35.325Z,16.84
2018-09-13T16:18:02.252Z,16.77
2018-09-13T16:20:29.137Z,16.64
2018-09-13T16:22:56.068Z,16.61
2018-09-13T16:25:22.961Z,16.59
2018-09-13T16:27:49.864Z,16.59
2018-09-13T16:30:16.755Z,16.49
2018-09-13T16:32:43.667Z,16.36
2018-09-13T16:35:10.605Z,16.33
2018-09-13T16:37:43.313Z,16.26
2018-09-13T16:40:15.994Z,16.22
2018-09-13T16:42:51.753Z,16.15
2018-09-13T16:45:19.077Z,16.13
2018-09-13T16:47:51.977Z,16.17
2018-09-13T16:50:18.849Z,16.17
2018-09-13T16:52:45.728Z,16.12
2018-09-13T16:55:12.677Z,16.00
2018-09-13T16:57:39.658Z,15.91
2018-09-13T17:00:12.022Z,15.80
2018-09-13T17:02:38.941Z,15.76
2018-09-13T17:05:05.999Z,15.70
2018-09-13T17:07:32.940Z,15.68
2018-09-13T17:09:59.841Z,15.62
2018-09-13T17:12:27.060Z,15.55
2018-09-13T17:14:54.110Z,15.43
2018-09-13T17:17:21.001Z,15.34
2018-09-13T17:19:48.311Z,15.32
2018-09-13T17:22:15.186Z,15.29
2018-09-13T17:24:42.117Z,15.19
2018-09-13T17:27:09.181Z,15.13
2018-09-13T17:29:36.082Z,15.04
2018-09-13T17:32:03.041Z,14.94
2018-09-13T17:34:30.066Z,14.83
2018-09-13T17:36:57.013Z,14.78
2018-09-13T17:39:23.901Z,14.65
2018-09-13T17:41:50.794Z,14.62
2018-09-13T17:44:17.674Z,14.52
2018-09-13T17:46:44.552Z,14.42
2018-09-13T17:49:11.445Z,14.32
2018-09-13T17:51:38.348Z,14.29
2018-09-13T17:54:05.257Z,14.13
2018-09-13T17:56:32.154Z,14.12
2018-09-13T17:58:59.048Z,14.03
2018-09-13T18:01:25.928Z,13.91
2018-09-13T18:03:52.849Z,13.80
2018-09-13T18:06:20.177Z,13.75
2018-09-13T18:08:47.112Z,13.64
2018-09-13T18:11:14.043Z,13.56
2018-09-13T18:13:40.889Z,13.44
2018-09-13T18:16:07.800Z,13.33
2018-09-13T18:18:34.684Z,13.30
2018-09-13T18:21:01.592Z,13.24
2018-09-13T18:23:28.942Z,13.19
2018-09-13T18:25:55.865Z,13.11
2018-09-13T18:28:22.769Z,13.04
2018-09-13T18:30:49.668Z,12.98
2018-09-13T18:33:16.568Z,12.85
2018-09-13T18:35:43.471Z,12.82
2018-09-13T18:38:10.360Z,12.76
2018-09-13T18:40:37.264Z,12.72
2018-09-13T18:43:04.217Z,12.72
2018-09-13T18:45:31.190Z,12.71
2018-09-13T18:47:58.090Z,12.69
2018-09-13T18:50:25.001Z,12.63
2018-09-13T18:52:51.936Z,12.57
2018-09-13T18:55:18.888Z,12.53
2018-09-13T18:57:45.783Z,12.51
2018-09-13T19:00:12.717Z,12.50
2018-09-13T19:02:39.621Z,12.45
2018-09-13T19:05:06.547Z,12.35
2018-09-13T19:07:33.460Z,12.28
2018-09-13T19:10:00.380Z,12.19
2018-09-13T19:12:27.305Z,12.10
2018-09-13T19:14:54.213Z,12.07
2018-09-13T19:17:21.105Z,12.04
2018-09-13T19:19:48.025Z,11.98
2018-09-13T19:22:14.920Z,11.92
2018-09-13T19:24:41.833Z,11.87
2018-09-13T19:27:08.737Z,11.81
2018-09-13T19:29:35.657Z,11.78
2018-09-13T19:32:02.573Z,11.68
2018-09-13T19:34:29.456Z,11.66
2018-09-13T19:36:56.369Z,11.62
2018-09-13T19:39:23.281Z,11.56
2018-09-13T19:41:50.229Z,11.26
2018-09-13T19:44:17.165Z,11.07
2018-09-13T19:46:44.082Z,10.95
2018-09-13T19:49:11.013Z,10.88
2018-09-13T19:51:37.981Z,10.82
2018-09-13T19:54:04.965Z,10.77
2018-09-13T19:56:31.921Z,10.75
2018-09-13T19:58:58.826Z,10.74
2018-09-13T20:01:25.753Z,10.70
2018-09-13T20:03:52.665Z,10.72
2018-09-13T20:06:19.588Z,10.66
2018-09-13T20:08:46.500Z,10.64
2018-09-13T20:11:13.409Z,10.59
2018-09-13T20:13:40.335Z,10.52
2018-09-13T20:16:07.245Z,10.52
2018-09-13T20:18:34.195Z,10.51
2018-09-13T20:21:01.101Z,10.48
2018-09-13T20:23:28.045Z,10.42
2018-09-13T20:25:55.010Z,10.34
2018-09-13T20:28:21.919Z,10.32
2018-09-13T20:30:48.847Z,10.27
2018-09-13T20:33:15.770Z,10.21
2018-09-13T20:35:42.680Z,10.25
2018-09-13T20:38:09.595Z,10.23
2018-09-13T20:40:36.979Z,10.19
2018-09-13T20:43:04.177Z,10.14
2018-09-13T20:45:31.137Z,10.13
2018-09-13T20:47:58.018Z,10.09
2018-09-13T20:50:24.946Z,10.05
2018-09-13T20:52:51.900Z,10.03
2018-09-13T20:55:18.816Z,10.01
2018-09-13T20:57:45.733Z,9.99
2018-09-13T21:00:17.535Z,9.94
2018-09-13T21:02:44.505Z,9.90
2018-09-13T21:05:11.418Z,9.89
2018-09-13T21:07:38.369Z,9.84
2018-09-13T21:10:05.300Z,9.79
2018-09-13T21:12:32.236Z,9.79
2018-09-13T21:14:59.150Z,9.73
2018-09-13T21:17:26.065Z,9.72
2018-09-13T21:19:52.962Z,9.75
2018-09-13T21:24:53.441Z,9.66
2018-09-13T21:27:20.360Z,9.62
2018-09-13T21:29:47.291Z,9.59
2018-09-13T21:32:14.214Z,9.59
2018-09-13T21:34:41.125Z,9.56
2018-09-13T21:37:08.044Z,9.55
2018-09-13T21:39:34.944Z,9.51
2018-09-13T21:42:01.882Z,9.43
2018-09-13T21:44:28.824Z,9.38
2018-09-13T21:46:55.830Z,9.33
2018-09-13T21:49:22.741Z,9.32
2018-09-13T21:51:49.757Z,9.32
2018-09-13T21:54:16.685Z,9.29
2018-09-13T21:56:43.621Z,9.27
2018-09-13T21:59:10.529Z,9.32
2018-09-13T22:01:37.437Z,9.39
2018-09-13T22:04:04.353Z,9.44
2018-09-13T22:06:31.264Z,9.44
2018-09-13T22:08:58.235Z,9.42
2018-09-13T22:11:25.309Z,9.35
2018-09-13T22:13:52.176Z,9.32
2018-09-13T22:16:19.101Z,9.29
2018-09-13T22:18:46.042Z,9.29
2018-09-13T22:21:12.998Z,9.22
2018-09-13T22:23:39.913Z,9.24
2018-09-13T22:26:06.829Z,9.20
2018-09-13T22:28:33.770Z,9.18
2018-09-13T22:31:00.660Z,9.15
2018-09-13T22:33:27.582Z,9.14
2018-09-13T22:35:54.497Z,9.15
2018-09-13T22:38:21.424Z,9.11
2018-09-13T22:40:48.339Z,9.13
2018-09-13T22:43:15.274Z,9.09
2018-09-13T22:45:42.181Z,9.01
2018-09-13T22:48:09.105Z,8.98
2018-09-13T22:50:36.022Z,9.00
2018-09-13T22:53:02.969Z,8.97
2018-09-13T22:55:29.905Z,8.91
2018-09-13T22:57:56.817Z,8.89
2018-09-13T23:00:23.734Z,8.85
2018-09-13T23:02:50.645Z,8.86
2018-09-13T23:05:18.682Z,8.85
2018-09-13T23:07:46.039Z,8.78
2018-09-13T23:10:13.172Z,8.82
2018-09-13T23:12:40.083Z,8.78
2018-09-13T23:15:07.105Z,8.72
2018-09-13T23:17:34.062Z,8.72
2018-09-13T23:20:00.969Z,8.78
2018-09-13T23:22:27.900Z,8.82
2018-09-13T23:24:54.920Z,8.78
2018-09-13T23:27:21.855Z,8.79
2018-09-13T23:29:48.771Z,8.86
2018-09-13T23:32:15.669Z,8.90
2018-09-13T23:34:42.668Z,8.92
2018-09-13T23:37:09.579Z,8.92
2018-09-13T23:39:36.770Z,8.91
2018-09-13T23:42:03.425Z,8.92
2018-09-13T23:44:30.357Z,8.93
2018-09-13T23:46:57.264Z,8.89
2018-09-13T23:49:24.191Z,8.93
2018-09-13T23:51:51.102Z,8.98
2018-09-13T23:54:18.021Z,9.04
2018-09-13T23:56:44.929Z,9.07
2018-09-13T23:59:11.857Z,9.11
